Hlavní strana
METAR-TAF:

METAR-TAF

Letiště :

Kulusuk, Grónsko

zeměpisná šířka: 65-35N, zeměpisná délka: 037-09W, výška: 35 m

Aktuální stav počasí

Zpráva byla vytvořena před 33 minutami, v 13:50 UTC
Východní vítr 7 kt, proměnlivý mezi východoseverovýchodním a jihovýchodním
Teplota 11°C
Vlhkost vzduchu 62%
Tlak 1007 hPa
Viditelnost 10 km a více
Skoro jasno ve výšce 2000 ft

METAR: BGKK 201350Z 09007KT 060V130 9999 FEW020 11/04 Q1007

Čas: 12:23 (14:23 UTC)

Předpověď počasí

Zpráva byla vytvořena před 3 hodinami a 10 minutami, v 11:13 UTC
Předpověď platná od 20 v 12 UTC do 20 v 21 UTC
vítr z různých směrů 5 kt
Viditelnost 10 km a více
Skoro jasno ve výšce 2000 ft
Dočasný
od 20 v 12 UTC do 20 v 18 UTC
Oblačno až skoro zataženo ve výšce 2000 ft

TAF: BGKK 201113Z 2012/2021 VRB05KT 9999 FEW020 TEMPO 2012/2018 BKN020

Stav a předpovědi počasí z více než 4 000 letišť (zprávy METAR a TAF).

Červené a žluté tečky na mapě představují dostupné meteorologické stanice.

Když kurzor umístíte na tečku, zobrazí se název stanice.

Pak kliknutím zobrazíte stav a předpověď počasí.

Chcete-li změnit mapu, kliknutím na zelené tlačítko se znaménkem +mapu přiblížíte, kliknutím na zelené tlačítko se znaménkem – mapu oddálíte a kliknutím na zelené šipky přejdete na sousední mapy.


METAR-TAF: